sensor_id;sensor_type;location;lat;lon;timestamp;temperature;humidity
30999;DHT22;20549;50.042;8.968;2023-12-14T00:01:28;8.80;99.90
30999;DHT22;20549;50.042;8.968;2023-12-14T00:03:54;8.80;99.90
30999;DHT22;20549;50.042;8.968;2023-12-14T00:06:21;8.80;99.90
30999;DHT22;20549;50.042;8.968;2023-12-14T00:08:47;8.70;99.90
30999;DHT22;20549;50.042;8.968;2023-12-14T00:11:14;8.70;99.90
30999;DHT22;20549;50.042;8.968;2023-12-14T00:13:41;8.70;99.90
30999;DHT22;20549;50.042;8.968;2023-12-14T00:16:07;8.70;99.90
30999;DHT22;20549;50.042;8.968;2023-12-14T00:18:34;8.70;99.90
30999;DHT22;20549;50.042;8.968;2023-12-14T00:21:00;8.70;99.90
30999;DHT22;20549;50.042;8.968;2023-12-14T00:23:27;8.70;99.90
30999;DHT22;20549;50.042;8.968;2023-12-14T00:25:54;8.70;99.90
30999;DHT22;20549;50.042;8.968;2023-12-14T00:28:20;8.70;99.90
30999;DHT22;20549;50.042;8.968;2023-12-14T00:30:47;8.70;99.90
30999;DHT22;20549;50.042;8.968;2023-12-14T00:33:13;8.70;99.90
30999;DHT22;20549;50.042;8.968;2023-12-14T00:35:40;8.60;99.90
30999;DHT22;20549;50.042;8.968;2023-12-14T00:38:06;8.70;99.90
30999;DHT22;20549;50.042;8.968;2023-12-14T00:40:33;8.70;99.90
30999;DHT22;20549;50.042;8.968;2023-12-14T00:43:00;8.70;99.90
30999;DHT22;20549;50.042;8.968;2023-12-14T00:45:26;8.70;99.90
30999;DHT22;20549;50.042;8.968;2023-12-14T00:47:53;8.80;99.90
30999;DHT22;20549;50.042;8.968;2023-12-14T00:50:19;8.80;99.90
30999;DHT22;20549;50.042;8.968;2023-12-14T00:52:46;8.80;99.90
30999;DHT22;20549;50.042;8.968;2023-12-14T00:55:13;8.80;99.90
30999;DHT22;20549;50.042;8.968;2023-12-14T00:57:39;8.90;99.90
30999;DHT22;20549;50.042;8.968;2023-12-14T01:00:06;8.90;99.90
30999;DHT22;20549;50.042;8.968;2023-12-14T01:02:32;8.90;99.90
30999;DHT22;20549;50.042;8.968;2023-12-14T01:04:59;8.90;99.90
30999;DHT22;20549;50.042;8.968;2023-12-14T01:07:26;8.90;99.90
30999;DHT22;20549;50.042;8.968;2023-12-14T01:09:52;9.00;99.90
30999;DHT22;20549;50.042;8.968;2023-12-14T01:12:19;9.00;99.90
30999;DHT22;20549;50.042;8.968;2023-12-14T01:14:45;9.00;99.90
30999;DHT22;20549;50.042;8.968;2023-12-14T01:17:12;9.10;99.90
30999;DHT22;20549;50.042;8.968;2023-12-14T01:19:42;9.10;99.90
30999;DHT22;20549;50.042;8.968;2023-12-14T01:22:08;9.10;99.90
30999;DHT22;20549;50.042;8.968;2023-12-14T01:24:35;9.10;99.90
30999;DHT22;20549;50.042;8.968;2023-12-14T01:27:01;9.10;99.90
30999;DHT22;20549;50.042;8.968;2023-12-14T01:29:28;9.10;99.90
30999;DHT22;20549;50.042;8.968;2023-12-14T01:31:54;9.20;99.90
30999;DHT22;20549;50.042;8.968;2023-12-14T01:34:21;9.20;99.90
30999;DHT22;20549;50.042;8.968;2023-12-14T01:36:48;9.20;99.90
30999;DHT22;20549;50.042;8.968;2023-12-14T01:39:14;9.30;99.90
30999;DHT22;20549;50.042;8.968;2023-12-14T01:41:41;9.30;99.90
30999;DHT22;20549;50.042;8.968;2023-12-14T01:44:07;9.30;99.90
30999;DHT22;20549;50.042;8.968;2023-12-14T01:46:34;9.40;99.90
30999;DHT22;20549;50.042;8.968;2023-12-14T01:49:01;9.40;99.90
30999;DHT22;20549;50.042;8.968;2023-12-14T01:51:27;9.40;99.90
30999;DHT22;20549;50.042;8.968;2023-12-14T01:53:54;9.40;99.90
30999;DHT22;20549;50.042;8.968;2023-12-14T01:56:20;9.40;99.90
30999;DHT22;20549;50.042;8.968;2023-12-14T01:58:47;9.40;99.90
30999;DHT22;20549;50.042;8.968;2023-12-14T02:01:26;9.40;99.90
30999;DHT22;20549;50.042;8.968;2023-12-14T02:03:47;9.40;99.90
30999;DHT22;20549;50.042;8.968;2023-12-14T02:06:13;9.50;99.90
30999;DHT22;20549;50.042;8.968;2023-12-14T02:08:39;9.50;99.90
30999;DHT22;20549;50.042;8.968;2023-12-14T02:11:06;9.50;99.90
30999;DHT22;20549;50.042;8.968;2023-12-14T02:13:33;9.50;99.90
30999;DHT22;20549;50.042;8.968;2023-12-14T02:15:59;9.50;99.90
30999;DHT22;20549;50.042;8.968;2023-12-14T02:18:26;9.50;99.90
30999;DHT22;20549;50.042;8.968;2023-12-14T02:20:52;9.50;99.90
30999;DHT22;20549;50.042;8.968;2023-12-14T02:23:19;9.50;99.90
30999;DHT22;20549;50.042;8.968;2023-12-14T02:25:45;9.50;99.90
30999;DHT22;20549;50.042;8.968;2023-12-14T02:28:12;9.40;99.90
30999;DHT22;20549;50.042;8.968;2023-12-14T02:30:39;9.50;99.90
30999;DHT22;20549;50.042;8.968;2023-12-14T02:33:05;9.40;99.90
30999;DHT22;20549;50.042;8.968;2023-12-14T02:35:32;9.40;99.90
30999;DHT22;20549;50.042;8.968;2023-12-14T02:37:58;9.40;99.90
30999;DHT22;20549;50.042;8.968;2023-12-14T02:40:25;9.50;99.90
30999;DHT22;20549;50.042;8.968;2023-12-14T02:42:52;9.40;99.90
30999;DHT22;20549;50.042;8.968;2023-12-14T02:45:18;9.40;99.90
30999;DHT22;20549;50.042;8.968;2023-12-14T02:47:45;9.40;99.90
30999;DHT22;20549;50.042;8.968;2023-12-14T02:50:11;9.40;99.90
30999;DHT22;20549;50.042;8.968;2023-12-14T02:52:38;9.40;99.90
30999;DHT22;20549;50.042;8.968;2023-12-14T02:55:04;9.40;99.90
30999;DHT22;20549;50.042;8.968;2023-12-14T02:57:31;9.40;99.90
30999;DHT22;20549;50.042;8.968;2023-12-14T02:59:58;9.40;99.90
30999;DHT22;20549;50.042;8.968;2023-12-14T03:02:24;9.40;99.90
30999;DHT22;20549;50.042;8.968;2023-12-14T03:04:51;9.40;99.90
30999;DHT22;20549;50.042;8.968;2023-12-14T03:07:17;9.30;99.90
30999;DHT22;20549;50.042;8.968;2023-12-14T03:09:44;9.30;99.90
30999;DHT22;20549;50.042;8.968;2023-12-14T03:12:11;9.30;99.90
30999;DHT22;20549;50.042;8.968;2023-12-14T03:14:37;9.20;99.90
30999;DHT22;20549;50.042;8.968;2023-12-14T03:17:04;9.20;99.90
30999;DHT22;20549;50.042;8.968;2023-12-14T03:19:30;9.20;99.90
30999;DHT22;20549;50.042;8.968;2023-12-14T03:21:57;9.10;99.90
30999;DHT22;20549;50.042;8.968;2023-12-14T03:24:24;9.00;99.90
30999;DHT22;20549;50.042;8.968;2023-12-14T03:26:50;8.90;99.90
30999;DHT22;20549;50.042;8.968;2023-12-14T03:29:18;8.90;99.90
30999;DHT22;20549;50.042;8.968;2023-12-14T03:31:43;8.80;99.90
30999;DHT22;20549;50.042;8.968;2023-12-14T03:34:10;8.70;99.90
30999;DHT22;20549;50.042;8.968;2023-12-14T03:36:36;8.60;99.90
30999;DHT22;20549;50.042;8.968;2023-12-14T03:39:03;8.60;99.90
30999;DHT22;20549;50.042;8.968;2023-12-14T03:41:30;8.50;99.90
30999;DHT22;20549;50.042;8.968;2023-12-14T03:43:56;8.50;99.90
30999;DHT22;20549;50.042;8.968;2023-12-14T03:46:23;8.50;99.90
30999;DHT22;20549;50.042;8.968;2023-12-14T03:48:49;8.50;99.90
30999;DHT22;20549;50.042;8.968;2023-12-14T03:51:19;8.50;99.90
30999;DHT22;20549;50.042;8.968;2023-12-14T03:53:45;8.50;99.90
30999;DHT22;20549;50.042;8.968;2023-12-14T03:56:12;8.50;99.90
30999;DHT22;20549;50.042;8.968;2023-12-14T03:58:38;8.50;99.90
30999;DHT22;20549;50.042;8.968;2023-12-14T04:01:05;8.50;99.90
30999;DHT22;20549;50.042;8.968;2023-12-14T04:03:32;8.60;99.90
30999;DHT22;20549;50.042;8.968;2023-12-14T04:05:58;8.60;99.90
30999;DHT22;20549;50.042;8.968;2023-12-14T04:08:25;8.60;99.90
30999;DHT22;20549;50.042;8.968;2023-12-14T04:10:51;8.60;99.90
30999;DHT22;20549;50.042;8.968;2023-12-14T04:13:18;8.60;99.90
30999;DHT22;20549;50.042;8.968;2023-12-14T04:15:45;8.70;99.90
30999;DHT22;20549;50.042;8.968;2023-12-14T04:18:11;8.70;99.90
30999;DHT22;20549;50.042;8.968;2023-12-14T04:20:38;8.70;99.90
30999;DHT22;20549;50.042;8.968;2023-12-14T04:23:04;8.80;99.90
30999;DHT22;20549;50.042;8.968;2023-12-14T04:25:31;8.80;99.90
30999;DHT22;20549;50.042;8.968;2023-12-14T04:27:58;8.80;99.90
30999;DHT22;20549;50.042;8.968;2023-12-14T04:30:24;8.80;99.90
30999;DHT22;20549;50.042;8.968;2023-12-14T04:32:51;8.80;99.90
30999;DHT22;20549;50.042;8.968;2023-12-14T04:35:17;8.80;99.90
30999;DHT22;20549;50.042;8.968;2023-12-14T04:37:44;8.80;99.90
30999;DHT22;20549;50.042;8.968;2023-12-14T04:40:11;8.80;99.90
30999;DHT22;20549;50.042;8.968;2023-12-14T04:42:37;8.80;99.90
30999;DHT22;20549;50.042;8.968;2023-12-14T04:45:04;8.80;99.90
30999;DHT22;20549;50.042;8.968;2023-12-14T04:47:30;8.80;99.90
30999;DHT22;20549;50.042;8.968;2023-12-14T04:49:57;8.80;99.90
30999;DHT22;20549;50.042;8.968;2023-12-14T04:52:24;8.80;99.90
30999;DHT22;20549;50.042;8.968;2023-12-14T04:54:50;8.80;99.90
30999;DHT22;20549;50.042;8.968;2023-12-14T04:57:17;8.80;99.90
30999;DHT22;20549;50.042;8.968;2023-12-14T04:59:43;8.70;99.90
30999;DHT22;20549;50.042;8.968;2023-12-14T05:02:10;8.80;99.90
30999;DHT22;20549;50.042;8.968;2023-12-14T05:04:37;8.70;99.90
30999;DHT22;20549;50.042;8.968;2023-12-14T05:07:03;8.70;99.90
30999;DHT22;20549;50.042;8.968;2023-12-14T05:09:30;8.70;99.90
30999;DHT22;20549;50.042;8.968;2023-12-14T05:11:56;8.70;99.90
30999;DHT22;20549;50.042;8.968;2023-12-14T05:14:23;8.70;99.90
30999;DHT22;20549;50.042;8.968;2023-12-14T05:16:49;8.70;99.90
30999;DHT22;20549;50.042;8.968;2023-12-14T05:19:16;8.70;99.90
30999;DHT22;20549;50.042;8.968;2023-12-14T05:21:43;8.70;99.90
30999;DHT22;20549;50.042;8.968;2023-12-14T05:24:09;8.70;99.90
30999;DHT22;20549;50.042;8.968;2023-12-14T05:26:36;8.70;99.90
30999;DHT22;20549;50.042;8.968;2023-12-14T05:29:02;8.70;99.90
30999;DHT22;20549;50.042;8.968;2023-12-14T05:31:29;8.70;99.90
30999;DHT22;20549;50.042;8.968;2023-12-14T05:33:56;8.60;99.90
30999;DHT22;20549;50.042;8.968;2023-12-14T05:36:22;8.60;99.90
30999;DHT22;20549;50.042;8.968;2023-12-14T05:38:49;8.60;99.90
30999;DHT22;20549;50.042;8.968;2023-12-14T05:41:15;8.60;99.90
30999;DHT22;20549;50.042;8.968;2023-12-14T05:43:42;8.50;99.90
30999;DHT22;20549;50.042;8.968;2023-12-14T05:46:09;8.50;99.90
30999;DHT22;20549;50.042;8.968;2023-12-14T05:48:36;8.60;99.90
30999;DHT22;20549;50.042;8.968;2023-12-14T05:51:02;8.60;99.90
30999;DHT22;20549;50.042;8.968;2023-12-14T05:53:28;8.60;99.90
30999;DHT22;20549;50.042;8.968;2023-12-14T05:55:55;8.60;99.90
30999;DHT22;20549;50.042;8.968;2023-12-14T05:58:21;8.70;99.90
30999;DHT22;20549;50.042;8.968;2023-12-14T06:00:48;8.70;99.90
30999;DHT22;20549;50.042;8.968;2023-12-14T06:03:15;8.70;99.90
30999;DHT22;20549;50.042;8.968;2023-12-14T06:05:41;8.80;99.90
30999;DHT22;20549;50.042;8.968;2023-12-14T06:08:08;8.80;99.90
30999;DHT22;20549;50.042;8.968;2023-12-14T06:10:34;8.80;99.90
30999;DHT22;20549;50.042;8.968;2023-12-14T06:13:01;8.80;99.90
30999;DHT22;20549;50.042;8.968;2023-12-14T06:15:28;8.90;99.90
30999;DHT22;20549;50.042;8.968;2023-12-14T06:17:54;8.90;99.90
30999;DHT22;20549;50.042;8.968;2023-12-14T06:20:21;8.90;99.90
30999;DHT22;20549;50.042;8.968;2023-12-14T06:22:47;8.90;99.90
30999;DHT22;20549;50.042;8.968;2023-12-14T06:25:14;8.90;99.90
30999;DHT22;20549;50.042;8.968;2023-12-14T06:27:41;8.90;99.90
30999;DHT22;20549;50.042;8.968;2023-12-14T06:30:07;8.90;99.90
30999;DHT22;20549;50.042;8.968;2023-12-14T06:32:34;8.90;99.90
30999;DHT22;20549;50.042;8.968;2023-12-14T06:35:00;9.00;99.90
30999;DHT22;20549;50.042;8.968;2023-12-14T06:37:27;9.00;99.90
30999;DHT22;20549;50.042;8.968;2023-12-14T06:39:54;9.00;99.90
30999;DHT22;20549;50.042;8.968;2023-12-14T06:42:20;9.00;99.90
30999;DHT22;20549;50.042;8.968;2023-12-14T06:44:47;9.00;99.90
30999;DHT22;20549;50.042;8.968;2023-12-14T06:47:13;9.00;99.90
30999;DHT22;20549;50.042;8.968;2023-12-14T06:49:40;9.00;99.90
30999;DHT22;20549;50.042;8.968;2023-12-14T06:52:07;9.00;99.90
30999;DHT22;20549;50.042;8.968;2023-12-14T06:54:33;9.00;99.90
30999;DHT22;20549;50.042;8.968;2023-12-14T06:57:00;9.00;99.90
30999;DHT22;20549;50.042;8.968;2023-12-14T06:59:26;9.00;99.90
30999;DHT22;20549;50.042;8.968;2023-12-14T07:01:53;9.00;99.90
30999;DHT22;20549;50.042;8.968;2023-12-14T07:04:19;9.10;99.90
30999;DHT22;20549;50.042;8.968;2023-12-14T07:06:52;9.10;99.90
30999;DHT22;20549;50.042;8.968;2023-12-14T07:09:19;9.10;99.90
30999;DHT22;20549;50.042;8.968;2023-12-14T07:11:45;9.10;99.90
30999;DHT22;20549;50.042;8.968;2023-12-14T07:14:12;9.10;99.90
30999;DHT22;20549;50.042;8.968;2023-12-14T07:16:38;9.10;99.90
30999;DHT22;20549;50.042;8.968;2023-12-14T07:19:05;9.10;99.90
30999;DHT22;20549;50.042;8.968;2023-12-14T07:21:32;9.10;99.90
30999;DHT22;20549;50.042;8.968;2023-12-14T07:23:58;9.10;99.90
30999;DHT22;20549;50.042;8.968;2023-12-14T07:26:25;9.10;99.90
30999;DHT22;20549;50.042;8.968;2023-12-14T07:28:53;9.10;99.90
30999;DHT22;20549;50.042;8.968;2023-12-14T07:31:18;9.10;99.90
30999;DHT22;20549;50.042;8.968;2023-12-14T07:33:45;9.10;99.90
30999;DHT22;20549;50.042;8.968;2023-12-14T07:36:11;9.10;99.90
30999;DHT22;20549;50.042;8.968;2023-12-14T07:38:38;9.10;99.90
30999;DHT22;20549;50.042;8.968;2023-12-14T07:41:04;9.10;99.90
30999;DHT22;20549;50.042;8.968;2023-12-14T07:43:31;9.10;99.90
30999;DHT22;20549;50.042;8.968;2023-12-14T07:45:57;9.20;99.90
30999;DHT22;20549;50.042;8.968;2023-12-14T07:48:24;9.20;99.90
30999;DHT22;20549;50.042;8.968;2023-12-14T07:50:51;9.20;99.90
30999;DHT22;20549;50.042;8.968;2023-12-14T07:53:17;9.30;99.90
30999;DHT22;20549;50.042;8.968;2023-12-14T07:55:44;9.30;99.90
30999;DHT22;20549;50.042;8.968;2023-12-14T07:58:10;9.30;99.90
30999;DHT22;20549;50.042;8.968;2023-12-14T08:00:37;9.40;99.90
30999;DHT22;20549;50.042;8.968;2023-12-14T08:03:04;9.50;99.90
30999;DHT22;20549;50.042;8.968;2023-12-14T08:05:30;9.60;99.90
30999;DHT22;20549;50.042;8.968;2023-12-14T08:07:57;9.70;99.90
30999;DHT22;20549;50.042;8.968;2023-12-14T08:10:23;9.70;99.90
30999;DHT22;20549;50.042;8.968;2023-12-14T08:12:50;9.80;99.90
30999;DHT22;20549;50.042;8.968;2023-12-14T08:15:16;9.80;99.90
30999;DHT22;20549;50.042;8.968;2023-12-14T08:17:43;9.80;99.90
30999;DHT22;20549;50.042;8.968;2023-12-14T08:20:10;9.80;99.90
30999;DHT22;20549;50.042;8.968;2023-12-14T08:22:36;9.80;99.90
30999;DHT22;20549;50.042;8.968;2023-12-14T08:25:03;9.90;99.90
30999;DHT22;20549;50.042;8.968;2023-12-14T08:27:29;9.80;99.90
30999;DHT22;20549;50.042;8.968;2023-12-14T08:29:56;9.90;99.90
30999;DHT22;20549;50.042;8.968;2023-12-14T08:32:23;9.80;99.90
30999;DHT22;20549;50.042;8.968;2023-12-14T08:34:49;9.90;99.90
30999;DHT22;20549;50.042;8.968;2023-12-14T08:37:16;9.90;99.90
30999;DHT22;20549;50.042;8.968;2023-12-14T08:39:42;9.90;99.90
30999;DHT22;20549;50.042;8.968;2023-12-14T08:42:09;9.90;99.90
30999;DHT22;20549;50.042;8.968;2023-12-14T08:44:38;9.90;99.90
30999;DHT22;20549;50.042;8.968;2023-12-14T08:47:02;9.90;99.90
30999;DHT22;20549;50.042;8.968;2023-12-14T08:49:29;10.00;99.90
30999;DHT22;20549;50.042;8.968;2023-12-14T08:51:55;10.00;99.90
30999;DHT22;20549;50.042;8.968;2023-12-14T08:54:22;10.00;99.90
30999;DHT22;20549;50.042;8.968;2023-12-14T08:56:48;10.00;99.90
30999;DHT22;20549;50.042;8.968;2023-12-14T08:59:15;10.00;99.90
30999;DHT22;20549;50.042;8.968;2023-12-14T09:01:42;10.00;99.90
30999;DHT22;20549;50.042;8.968;2023-12-14T09:04:08;10.10;99.90
30999;DHT22;20549;50.042;8.968;2023-12-14T09:06:35;10.10;99.90
30999;DHT22;20549;50.042;8.968;2023-12-14T09:09:01;10.10;99.90
30999;DHT22;20549;50.042;8.968;2023-12-14T09:11:28;10.10;99.90
30999;DHT22;20549;50.042;8.968;2023-12-14T09:13:55;10.10;99.90
30999;DHT22;20549;50.042;8.968;2023-12-14T09:16:21;10.10;99.90
30999;DHT22;20549;50.042;8.968;2023-12-14T09:18:48;10.20;99.90
30999;DHT22;20549;50.042;8.968;2023-12-14T09:21:14;10.20;99.90
30999;DHT22;20549;50.042;8.968;2023-12-14T09:23:41;10.20;99.90
30999;DHT22;20549;50.042;8.968;2023-12-14T09:26:08;10.20;99.90
30999;DHT22;20549;50.042;8.968;2023-12-14T09:28:34;10.20;99.90
30999;DHT22;20549;50.042;8.968;2023-12-14T09:31:01;10.20;99.90
30999;DHT22;20549;50.042;8.968;2023-12-14T09:33:27;10.20;99.90
30999;DHT22;20549;50.042;8.968;2023-12-14T09:35:54;10.20;99.90
30999;DHT22;20549;50.042;8.968;2023-12-14T09:38:20;10.20;99.90
30999;DHT22;20549;50.042;8.968;2023-12-14T09:40:47;10.20;99.90
30999;DHT22;20549;50.042;8.968;2023-12-14T09:43:14;10.20;99.90
30999;DHT22;20549;50.042;8.968;2023-12-14T09:45:40;10.20;99.90
30999;DHT22;20549;50.042;8.968;2023-12-14T09:48:07;10.20;99.90
30999;DHT22;20549;50.042;8.968;2023-12-14T09:50:33;10.20;99.90
30999;DHT22;20549;50.042;8.968;2023-12-14T09:53:00;10.20;99.90
30999;DHT22;20549;50.042;8.968;2023-12-14T09:55:27;10.30;99.90
30999;DHT22;20549;50.042;8.968;2023-12-14T09:57:53;10.30;99.90
30999;DHT22;20549;50.042;8.968;2023-12-14T10:00:33;10.30;99.90
30999;DHT22;20549;50.042;8.968;2023-12-14T10:03:16;10.30;99.90
30999;DHT22;20549;50.042;8.968;2023-12-14T10:05:25;10.30;99.90
30999;DHT22;20549;50.042;8.968;2023-12-14T10:07:52;10.40;99.90
30999;DHT22;20549;50.042;8.968;2023-12-14T10:10:18;10.40;99.90
30999;DHT22;20549;50.042;8.968;2023-12-14T10:12:53;10.40;99.90
30999;DHT22;20549;50.042;8.968;2023-12-14T10:15:20;10.50;99.90
30999;DHT22;20549;50.042;8.968;2023-12-14T10:17:47;10.50;99.90
30999;DHT22;20549;50.042;8.968;2023-12-14T10:20:14;10.50;99.90
30999;DHT22;20549;50.042;8.968;2023-12-14T10:22:40;10.60;99.90
30999;DHT22;20549;50.042;8.968;2023-12-14T10:25:06;10.60;99.90
30999;DHT22;20549;50.042;8.968;2023-12-14T10:27:33;10.60;99.90
30999;DHT22;20549;50.042;8.968;2023-12-14T10:30:00;10.60;99.90
30999;DHT22;20549;50.042;8.968;2023-12-14T10:32:26;10.60;99.90
30999;DHT22;20549;50.042;8.968;2023-12-14T10:34:53;10.60;99.90
30999;DHT22;20549;50.042;8.968;2023-12-14T10:37:19;10.70;99.90
30999;DHT22;20549;50.042;8.968;2023-12-14T10:39:46;10.70;99.90
30999;DHT22;20549;50.042;8.968;2023-12-14T10:42:12;10.70;99.90
30999;DHT22;20549;50.042;8.968;2023-12-14T10:44:39;10.80;99.90
30999;DHT22;20549;50.042;8.968;2023-12-14T10:47:06;10.70;99.90
30999;DHT22;20549;50.042;8.968;2023-12-14T10:49:32;10.80;99.90
30999;DHT22;20549;50.042;8.968;2023-12-14T10:51:59;10.80;99.90
30999;DHT22;20549;50.042;8.968;2023-12-14T10:54:26;10.80;99.90
30999;DHT22;20549;50.042;8.968;2023-12-14T10:56:55;10.80;99.90
30999;DHT22;20549;50.042;8.968;2023-12-14T10:59:21;10.80;99.90
30999;DHT22;20549;50.042;8.968;2023-12-14T11:01:51;10.80;99.90
30999;DHT22;20549;50.042;8.968;2023-12-14T11:04:17;10.80;99.90
30999;DHT22;20549;50.042;8.968;2023-12-14T11:06:44;10.80;99.90
30999;DHT22;20549;50.042;8.968;2023-12-14T11:09:11;10.90;99.90
30999;DHT22;20549;50.042;8.968;2023-12-14T11:11:41;10.80;99.90
30999;DHT22;20549;50.042;8.968;2023-12-14T11:14:08;10.90;99.90
30999;DHT22;20549;50.042;8.968;2023-12-14T11:16:34;10.90;99.90
30999;DHT22;20549;50.042;8.968;2023-12-14T11:24:15;11.00;99.90
30999;DHT22;20549;50.042;8.968;2023-12-14T11:26:42;11.00;99.90
30999;DHT22;20549;50.042;8.968;2023-12-14T11:29:08;11.00;99.90
30999;DHT22;20549;50.042;8.968;2023-12-14T11:31:35;11.00;99.90
30999;DHT22;20549;50.042;8.968;2023-12-14T11:34:02;11.00;99.90
30999;DHT22;20549;50.042;8.968;2023-12-14T11:36:28;11.00;99.90
30999;DHT22;20549;50.042;8.968;2023-12-14T11:38:55;11.00;99.90
30999;DHT22;20549;50.042;8.968;2023-12-14T11:41:21;11.00;99.90
30999;DHT22;20549;50.042;8.968;2023-12-14T11:43:48;11.00;99.90
30999;DHT22;20549;50.042;8.968;2023-12-14T11:46:15;11.00;99.90
30999;DHT22;20549;50.042;8.968;2023-12-14T11:48:43;10.90;99.90
30999;DHT22;20549;50.042;8.968;2023-12-14T11:51:08;10.90;99.90
30999;DHT22;20549;50.042;8.968;2023-12-14T11:53:35;10.90;99.90
30999;DHT22;20549;50.042;8.968;2023-12-14T11:56:01;10.90;99.90
30999;DHT22;20549;50.042;8.968;2023-12-14T11:58:27;10.90;99.90
30999;DHT22;20549;50.042;8.968;2023-12-14T12:00:54;10.90;99.90
30999;DHT22;20549;50.042;8.968;2023-12-14T12:03:21;10.90;99.90
30999;DHT22;20549;50.042;8.968;2023-12-14T12:05:48;10.90;99.90
30999;DHT22;20549;50.042;8.968;2023-12-14T12:08:15;10.90;99.90
30999;DHT22;20549;50.042;8.968;2023-12-14T12:10:41;10.90;99.90
30999;DHT22;20549;50.042;8.968;2023-12-14T12:13:08;11.00;99.90
30999;DHT22;20549;50.042;8.968;2023-12-14T12:15:34;11.00;99.90
30999;DHT22;20549;50.042;8.968;2023-12-14T12:18:00;11.10;99.90
30999;DHT22;20549;50.042;8.968;2023-12-14T12:20:27;11.10;99.90
30999;DHT22;20549;50.042;8.968;2023-12-14T12:22:53;11.20;99.90
30999;DHT22;20549;50.042;8.968;2023-12-14T12:25:20;11.20;99.90
30999;DHT22;20549;50.042;8.968;2023-12-14T12:27:47;11.30;99.90
30999;DHT22;20549;50.042;8.968;2023-12-14T12:30:13;11.30;99.90
30999;DHT22;20549;50.042;8.968;2023-12-14T12:32:40;11.30;99.90
30999;DHT22;20549;50.042;8.968;2023-12-14T12:35:06;11.40;99.90
30999;DHT22;20549;50.042;8.968;2023-12-14T12:37:33;11.50;99.90
30999;DHT22;20549;50.042;8.968;2023-12-14T12:40:00;11.50;99.90
30999;DHT22;20549;50.042;8.968;2023-12-14T12:42:26;11.50;99.90
30999;DHT22;20549;50.042;8.968;2023-12-14T12:44:53;11.60;99.90
30999;DHT22;20549;50.042;8.968;2023-12-14T12:47:19;11.60;99.90
30999;DHT22;20549;50.042;8.968;2023-12-14T12:49:46;11.70;99.90
30999;DHT22;20549;50.042;8.968;2023-12-14T12:52:13;11.80;99.90
30999;DHT22;20549;50.042;8.968;2023-12-14T12:54:39;11.80;99.90
30999;DHT22;20549;50.042;8.968;2023-12-14T12:57:06;11.90;99.90
30999;DHT22;20549;50.042;8.968;2023-12-14T12:59:32;11.90;99.90
30999;DHT22;20549;50.042;8.968;2023-12-14T13:01:59;11.90;99.90
30999;DHT22;20549;50.042;8.968;2023-12-14T13:04:25;12.00;99.90
30999;DHT22;20549;50.042;8.968;2023-12-14T13:06:52;12.00;99.90
30999;DHT22;20549;50.042;8.968;2023-12-14T13:09:19;12.00;99.90
30999;DHT22;20549;50.042;8.968;2023-12-14T13:11:45;12.00;99.90
30999;DHT22;20549;50.042;8.968;2023-12-14T13:14:12;11.90;99.90
30999;DHT22;20549;50.042;8.968;2023-12-14T13:16:39;11.90;99.90
30999;DHT22;20549;50.042;8.968;2023-12-14T13:19:05;11.90;99.90
30999;DHT22;20549;50.042;8.968;2023-12-14T13:21:32;11.80;99.90
30999;DHT22;20549;50.042;8.968;2023-12-14T13:23:58;11.80;99.90
30999;DHT22;20549;50.042;8.968;2023-12-14T13:26:25;11.80;99.90
30999;DHT22;20549;50.042;8.968;2023-12-14T13:28:51;11.80;99.90
30999;DHT22;20549;50.042;8.968;2023-12-14T13:31:18;11.80;99.90
30999;DHT22;20549;50.042;8.968;2023-12-14T13:33:48;11.80;99.90
30999;DHT22;20549;50.042;8.968;2023-12-14T13:36:14;11.80;99.90
30999;DHT22;20549;50.042;8.968;2023-12-14T13:38:41;11.80;99.90
30999;DHT22;20549;50.042;8.968;2023-12-14T13:41:08;11.80;99.90
30999;DHT22;20549;50.042;8.968;2023-12-14T13:43:34;11.80;99.90
30999;DHT22;20549;50.042;8.968;2023-12-14T13:46:00;11.80;99.90
30999;DHT22;20549;50.042;8.968;2023-12-14T13:48:27;11.80;99.90
30999;DHT22;20549;50.042;8.968;2023-12-14T13:50:54;11.80;99.90
30999;DHT22;20549;50.042;8.968;2023-12-14T13:53:20;11.80;99.90
30999;DHT22;20549;50.042;8.968;2023-12-14T13:55:47;11.80;99.90
30999;DHT22;20549;50.042;8.968;2023-12-14T13:58:13;11.80;99.90
30999;DHT22;20549;50.042;8.968;2023-12-14T14:00:40;11.70;99.90
30999;DHT22;20549;50.042;8.968;2023-12-14T14:03:06;11.70;99.90
30999;DHT22;20549;50.042;8.968;2023-12-14T14:05:33;11.70;99.90
30999;DHT22;20549;50.042;8.968;2023-12-14T14:08:00;11.70;99.90
30999;DHT22;20549;50.042;8.968;2023-12-14T14:10:26;11.60;99.90
30999;DHT22;20549;50.042;8.968;2023-12-14T14:12:53;11.60;99.90
30999;DHT22;20549;50.042;8.968;2023-12-14T14:15:19;11.60;99.90
30999;DHT22;20549;50.042;8.968;2023-12-14T14:17:46;11.60;99.90
30999;DHT22;20549;50.042;8.968;2023-12-14T14:20:13;11.60;99.90
30999;DHT22;20549;50.042;8.968;2023-12-14T14:22:39;11.60;99.90
30999;DHT22;20549;50.042;8.968;2023-12-14T14:25:06;11.60;99.90
30999;DHT22;20549;50.042;8.968;2023-12-14T14:27:33;11.50;99.90
30999;DHT22;20549;50.042;8.968;2023-12-14T14:29:59;11.50;99.90
30999;DHT22;20549;50.042;8.968;2023-12-14T14:32:26;11.50;99.90
30999;DHT22;20549;50.042;8.968;2023-12-14T14:34:52;11.50;99.90
30999;DHT22;20549;50.042;8.968;2023-12-14T14:37:19;11.40;99.90
30999;DHT22;20549;50.042;8.968;2023-12-14T14:39:45;11.40;99.90
30999;DHT22;20549;50.042;8.968;2023-12-14T14:42:12;11.40;99.90
30999;DHT22;20549;50.042;8.968;2023-12-14T14:44:39;11.40;99.90
30999;DHT22;20549;50.042;8.968;2023-12-14T14:47:05;11.30;99.90
30999;DHT22;20549;50.042;8.968;2023-12-14T14:49:32;11.30;99.90
30999;DHT22;20549;50.042;8.968;2023-12-14T14:51:58;11.30;99.90
30999;DHT22;20549;50.042;8.968;2023-12-14T14:54:25;11.20;99.90
30999;DHT22;20549;50.042;8.968;2023-12-14T14:56:51;11.20;99.90
30999;DHT22;20549;50.042;8.968;2023-12-14T14:59:18;11.20;99.90
30999;DHT22;20549;50.042;8.968;2023-12-14T15:01:45;11.10;99.90
30999;DHT22;20549;50.042;8.968;2023-12-14T15:04:11;11.10;99.90
30999;DHT22;20549;50.042;8.968;2023-12-14T15:06:38;11.10;99.90
30999;DHT22;20549;50.042;8.968;2023-12-14T15:09:05;11.10;99.90
30999;DHT22;20549;50.042;8.968;2023-12-14T15:11:31;11.10;99.90
30999;DHT22;20549;50.042;8.968;2023-12-14T15:13:57;11.10;99.90
30999;DHT22;20549;50.042;8.968;2023-12-14T15:16:24;11.00;99.90
30999;DHT22;20549;50.042;8.968;2023-12-14T15:18:51;11.00;99.90
30999;DHT22;20549;50.042;8.968;2023-12-14T15:21:17;11.00;99.90
30999;DHT22;20549;50.042;8.968;2023-12-14T15:23:44;11.00;99.90
30999;DHT22;20549;50.042;8.968;2023-12-14T15:26:10;11.00;99.90
30999;DHT22;20549;50.042;8.968;2023-12-14T15:28:37;10.90;99.90
30999;DHT22;20549;50.042;8.968;2023-12-14T15:31:04;10.90;99.90
30999;DHT22;20549;50.042;8.968;2023-12-14T15:33:30;10.90;99.90
30999;DHT22;20549;50.042;8.968;2023-12-14T15:35:57;10.90;99.90
30999;DHT22;20549;50.042;8.968;2023-12-14T15:38:23;10.90;99.90
30999;DHT22;20549;50.042;8.968;2023-12-14T15:40:50;10.90;99.90